Time;durP1;ratioP1;P1;durP2;ratioP2;P2;SDS_P1;SDS_P2;PMS_P1;PMS_P2;Temp;Humidity;BMP_temperature;BMP_pressure;BME280_temperature;BME280_humidity;BME280_pressure;Samples;Min_cycle;Max_cycle;Signal;HPM_P1;HPM_P2
2024/01/23 00:00:46;;;;;;;5.77;1.50;;;4.90;99.90;4.00;99371;;;;555011;255;24121;-80
2024/01/23 00:03:14;;;;;;;1.23;0.97;;;4.90;99.90;4.00;99365;;;;554468;255;24159;-79
2024/01/23 00:05:42;;;;;;;6.50;1.63;;;4.90;99.90;4.00;99364;;;;554529;255;24174;-79
2024/01/23 00:08:09;;;;;;;7.20;2.90;;;4.90;99.90;3.90;99374;;;;554463;255;24147;-79
2024/01/23 00:10:37;;;;;;;7.23;1.67;;;4.80;99.90;3.80;99376;;;;554754;255;24126;-78
2024/01/23 00:13:05;;;;;;;2.10;1.60;;;4.70;99.90;3.80;99377;;;;552223;255;24111;-79
2024/01/23 00:15:36;;;;;;;6.90;2.23;;;4.70;99.90;3.70;99386;;;;554550;255;24161;-79
2024/01/23 00:18:06;;;;;;;8.47;1.70;;;4.70;99.90;3.70;99391;;;;554378;255;24185;-78
2024/01/23 00:20:33;;;;;;;1.37;1.27;;;4.60;99.90;3.70;99401;;;;552569;255;24149;-79
2024/01/23 00:23:00;;;;;;;6.00;1.57;;;4.60;99.90;3.60;99393;;;;555791;255;24144;-81
2024/01/23 00:25:28;;;;;;;1.73;0.87;;;4.50;99.90;3.60;99386;;;;554896;255;24147;-79
2024/01/23 00:27:56;;;;;;;7.03;2.17;;;4.50;99.90;3.60;99396;;;;554659;255;24139;-79
2024/01/23 00:30:27;;;;;;;5.30;1.80;;;4.50;99.90;3.50;99393;;;;554604;255;24129;-80
2024/01/23 00:32:55;;;;;;;13.83;1.80;;;4.40;99.90;3.50;99386;;;;554722;255;24128;-80
2024/01/23 00:35:22;;;;;;;6.30;1.83;;;4.40;99.90;3.50;99389;;;;563662;253;24126;-79
2024/01/23 00:37:51;;;;;;;5.07;1.87;;;4.40;99.90;3.40;99389;;;;556341;254;24109;-79
2024/01/23 00:40:19;;;;;;;9.70;2.30;;;4.40;99.90;3.40;99396;;;;555757;254;24134;-80
2024/01/23 00:42:48;;;;;;;8.37;1.90;;;4.20;99.90;3.30;99401;;;;555604;254;24145;-80
2024/01/23 00:45:16;;;;;;;8.03;1.27;;;4.20;99.90;3.30;99396;;;;555479;254;24094;-79
2024/01/23 00:47:43;;;;;;;1.47;0.80;;;4.20;99.90;3.20;99391;;;;555324;254;24144;-79
2024/01/23 00:50:11;;;;;;;7.73;1.70;;;4.20;99.90;3.20;99392;;;;555377;254;24155;-79
2024/01/23 00:52:39;;;;;;;2.67;1.87;;;4.10;99.90;3.20;99398;;;;554997;254;24124;-80
2024/01/23 00:55:07;;;;;;;11.60;1.40;;;4.10;99.90;3.20;99391;;;;563456;255;24118;-79
2024/01/23 00:57:35;;;;;;;6.93;2.13;;;4.10;99.90;3.20;99403;;;;558652;255;35442;-78
2024/01/23 01:00:07;;;;;;;12.02;3.35;;;4.10;99.90;3.20;99415;;;;549987;255;35460;-78
2024/01/23 01:02:33;;;;;;;10.47;2.77;;;4.10;99.90;3.20;99411;;;;563413;255;24133;-77
2024/01/23 01:05:02;;;;;;;9.10;1.80;;;4.20;99.90;3.20;99417;;;;555110;255;24204;-79
2024/01/23 01:07:30;;;;;;;11.53;3.10;;;4.20;99.90;3.30;99403;;;;550287;255;35412;-78
2024/01/23 01:09:58;;;;;;;7.07;2.90;;;4.20;99.90;3.40;99413;;;;555096;255;24165;-79
2024/01/23 01:12:26;;;;;;;6.53;1.70;;;4.30;99.90;3.50;99411;;;;554978;255;24122;-79
2024/01/23 01:14:54;;;;;;;10.13;2.53;;;4.30;99.90;3.50;99414;;;;552636;255;24193;-78
2024/01/23 01:17:22;;;;;;;9.93;2.13;;;4.40;99.90;3.40;99412;;;;554883;255;24164;-79
2024/01/23 01:19:56;;;;;;;9.10;2.33;;;4.40;99.90;3.40;99410;;;;554888;255;24269;-79
2024/01/23 01:22:22;;;;;;;3.63;1.60;;;4.30;99.90;3.30;99405;;;;555305;255;24128;-79
2024/01/23 01:24:49;;;;;;;1.50;1.00;;;4.30;99.90;3.30;99425;;;;554688;255;24177;-78
2024/01/23 01:27:18;;;;;;;7.70;2.10;;;4.20;99.90;3.30;99422;;;;554519;255;24130;-79
2024/01/23 01:29:47;;;;;;;8.23;2.20;;;4.20;99.90;3.30;99417;;;;554406;255;24121;-79
2024/01/23 01:32:15;;;;;;;3.67;1.67;;;4.20;99.90;3.30;99408;;;;555008;255;24126;-79
2024/01/23 01:34:46;;;;;;;4.90;1.67;;;4.20;99.90;3.30;99408;;;;554496;255;24135;-79
2024/01/23 01:37:11;;;;;;;2.60;1.60;;;4.20;99.90;3.20;99411;;;;554355;255;24140;-79
2024/01/23 01:39:39;;;;;;;10.83;1.90;;;4.20;99.90;3.20;99423;;;;554537;255;24184;-78
2024/01/23 01:42:06;;;;;;;4.60;1.73;;;4.10;99.90;3.20;99418;;;;554831;255;24126;-78
2024/01/23 01:44:38;;;;;;;3.57;1.50;;;4.10;99.90;3.10;99423;;;;554662;255;25168;-78
2024/01/23 01:47:05;;;;;;;6.40;1.60;;;4.10;99.90;3.10;99423;;;;555189;252;24206;-79
2024/01/23 01:49:30;;;;;;;7.87;2.17;;;4.00;99.90;3.10;99426;;;;553782;254;24116;-77
2024/01/23 01:51:59;;;;;;;9.97;2.17;;;4.00;99.90;3.10;99435;;;;553627;254;24127;-78
2024/01/23 01:54:27;;;;;;;3.17;1.53;;;4.00;99.90;3.10;99425;;;;553386;254;24143;-79
2024/01/23 01:56:55;;;;;;;3.27;1.90;;;4.00;99.90;3.10;99421;;;;553353;254;24135;-78
2024/01/23 01:59:23;;;;;;;2.60;1.20;;;4.00;99.90;3.10;99420;;;;556702;254;24155;-78
2024/01/23 02:01:50;;;;;;;19.60;2.13;;;4.00;99.90;3.10;99426;;;;555421;254;24106;-77
2024/01/23 02:04:19;;;;;;;1.40;0.90;;;4.00;99.90;3.10;99422;;;;564046;254;24143;-76
2024/01/23 02:06:50;;;;;;;6.10;1.90;;;4.00;99.90;3.10;99417;;;;554706;255;24118;-78
2024/01/23 02:09:15;;;;;;;4.03;2.37;;;4.00;99.90;3.00;99429;;;;554608;255;24118;-77
2024/01/23 02:12:01;;;;;;;9.87;2.23;;;4.00;99.90;3.00;99426;;;;555111;255;24167;-78
2024/01/23 02:14:29;;;;;;;9.40;2.60;;;3.90;99.90;3.00;99424;;;;553377;255;24118;-79
2024/01/23 02:16:56;;;;;;;9.53;2.13;;;3.90;99.90;2.90;99426;;;;554851;255;24127;-78
2024/01/23 02:19:24;;;;;;;10.47;2.67;;;3.90;99.90;2.90;99421;;;;555200;255;24172;-78
2024/01/23 02:21:52;;;;;;;1.33;1.20;;;3.80;99.90;2.90;99417;;;;556319;255;24243;-78
2024/01/23 02:24:20;;;;;;;3.63;1.83;;;3.80;99.90;2.90;99429;;;;554953;255;24114;-78
2024/01/23 02:26:48;;;;;;;6.93;1.60;;;3.80;99.90;3.00;99417;;;;554666;255;24141;-78
2024/01/23 02:29:16;;;;;;;4.43;1.90;;;3.80;99.90;3.00;99417;;;;554910;255;24142;-78
2024/01/23 02:31:45;;;;;;;3.47;1.90;;;3.90;99.90;3.00;99422;;;;554831;255;25196;-78
2024/01/23 02:34:13;;;;;;;5.27;1.37;;;3.90;99.90;3.00;99421;;;;554868;255;24094;-79
2024/01/23 02:36:42;;;;;;;5.57;1.63;;;3.90;99.90;3.00;99422;;;;554873;255;24120;-78
2024/01/23 02:39:09;;;;;;;10.83;1.90;;;3.90;99.90;3.00;99420;;;;554704;255;25175;-78
2024/01/23 02:41:37;;;;;;;8.17;2.33;;;3.90;99.90;3.00;99419;;;;554481;255;24126;-78
2024/01/23 02:44:05;;;;;;;12.97;2.53;;;3.90;99.90;3.10;99426;;;;555641;255;24106;-79
2024/01/23 02:46:33;;;;;;;5.63;1.50;;;4.00;99.90;3.00;99409;;;;552321;255;24137;-79
2024/01/23 02:49:01;;;;;;;6.47;1.80;;;3.90;99.90;3.00;99412;;;;554424;255;24126;-79
2024/01/23 02:51:29;;;;;;;3.67;1.20;;;3.90;99.90;3.00;99410;;;;554895;255;24158;-79
2024/01/23 02:53:56;;;;;;;6.50;2.10;;;3.90;99.90;2.90;99420;;;;554784;255;24117;-79
2024/01/23 02:56:24;;;;;;;9.13;1.60;;;3.90;99.90;2.90;99412;;;;554856;255;24197;-78
2024/01/23 02:58:52;;;;;;;3.50;2.00;;;3.90;99.90;2.90;99422;;;;555573;253;24096;-78
2024/01/23 03:01:20;;;;;;;5.53;1.63;;;3.90;99.90;2.90;99425;;;;556149;254;24109;-78
2024/01/23 03:03:49;;;;;;;8.47;2.13;;;3.80;99.90;3.00;99427;;;;555777;254;24128;-79
2024/01/23 03:06:17;;;;;;;4.03;2.03;;;3.90;99.90;3.10;99429;;;;555693;254;24122;-78
2024/01/23 03:08:45;;;;;;;4.97;1.80;;;3.90;99.90;3.10;99431;;;;555103;254;24118;-79
2024/01/23 03:11:14;;;;;;;7.90;1.70;;;4.10;99.90;3.30;99439;;;;555023;254;24123;-78
2024/01/23 03:13:42;;;;;;;7.17;1.83;;;4.10;99.90;3.40;99434;;;;554921;254;24116;-78
2024/01/23 03:16:10;;;;;;;6.80;1.50;;;4.30;99.90;3.40;99435;;;;555090;254;24106;-79
2024/01/23 03:18:38;;;;;;;7.13;2.13;;;4.30;99.90;3.40;99438;;;;554739;255;24123;-78
2024/01/23 03:21:06;;;;;;;6.27;2.30;;;4.30;99.90;3.40;99441;;;;555056;255;24114;-79
2024/01/23 03:23:34;;;;;;;6.17;1.80;;;4.30;99.90;3.40;99444;;;;555102;255;24107;-78
2024/01/23 03:26:02;;;;;;;6.87;1.90;;;4.30;99.90;3.40;99443;;;;555095;255;24131;-78
2024/01/23 03:28:30;;;;;;;4.30;2.00;;;4.30;99.90;3.30;99446;;;;554685;255;24114;-79
2024/01/23 03:30:58;;;;;;;4.30;1.60;;;4.30;99.90;3.30;99448;;;;554766;255;24149;-79
2024/01/23 03:33:27;;;;;;;3.47;1.60;;;4.10;99.90;3.20;99444;;;;554873;255;24133;-79
2024/01/23 03:35:55;;;;;;;4.10;1.57;;;4.10;99.90;3.10;99458;;;;554642;255;24616;-80
2024/01/23 03:38:23;;;;;;;12.47;2.40;;;4.10;99.90;3.10;99457;;;;554456;255;24127;-79
2024/01/23 03:40:51;;;;;;;9.30;1.80;;;4.00;99.90;3.10;99453;;;;554918;255;24106;-78
2024/01/23 03:43:19;;;;;;;2.63;1.77;;;4.00;99.90;3.10;99453;;;;554853;255;24120;-79
2024/01/23 03:45:47;;;;;;;10.13;3.20;;;4.00;99.90;3.20;99450;;;;550118;255;46281;-80
2024/01/23 03:48:17;;;;;;;5.13;2.27;;;4.10;99.90;3.30;99452;;;;554887;255;24120;-78
2024/01/23 03:50:42;;;;;;;5.00;2.53;;;4.10;99.90;3.30;99445;;;;552462;255;24111;-78
2024/01/23 03:53:11;;;;;;;7.80;2.67;;;4.30;99.90;3.40;99460;;;;554537;255;24120;-81
2024/01/23 03:55:39;;;;;;;2.70;1.73;;;4.30;99.90;3.40;99452;;;;554450;255;24135;-79
2024/01/23 03:58:10;;;;;;;4.40;1.73;;;4.30;99.90;3.40;99457;;;;554575;255;24140;-79
2024/01/23 04:00:35;;;;;;;8.40;3.42;;;4.30;99.90;3.40;99461;;;;549911;255;35458;-78
2024/01/23 04:03:05;;;;;;;4.97;2.00;;;4.30;99.90;3.40;99461;;;;554644;255;24107;-79
2024/01/23 04:05:32;;;;;;;14.03;3.17;;;4.30;99.90;3.40;99463;;;;554885;255;24124;-79
2024/01/23 04:07:59;;;;;;;7.73;2.87;;;4.30;99.90;3.30;99466;;;;549452;255;46373;-77
2024/01/23 04:10:27;;;;;;;8.53;3.00;;;4.30;99.90;3.30;99474;;;;554720;253;24177;-78
2024/01/23 04:12:55;;;;;;;5.80;2.20;;;4.20;99.90;3.30;99488;;;;555681;254;24207;-79
2024/01/23 04:15:23;;;;;;;6.13;2.23;;;4.20;99.90;3.20;99488;;;;555482;254;24122;-80
2024/01/23 04:17:54;;;;;;;10.00;2.30;;;4.20;99.90;3.30;99501;;;;555168;254;24118;-78
2024/01/23 04:20:19;;;;;;;5.77;1.83;;;4.10;99.90;3.20;99499;;;;555466;254;24175;-78
2024/01/23 04:22:48;;;;;;;6.87;1.87;;;4.10;99.90;3.20;99503;;;;555036;254;24138;-79
2024/01/23 04:25:16;;;;;;;8.93;1.93;;;4.10;99.90;3.10;99512;;;;555228;254;25185;-79
2024/01/23 04:27:44;;;;;;;2.73;1.47;;;4.00;99.90;3.10;99518;;;;555070;254;24130;-78
2024/01/23 04:30:12;;;;;;;6.70;1.77;;;4.00;99.90;3.00;99524;;;;554724;255;24107;-78
2024/01/23 04:32:41;;;;;;;4.77;1.37;;;3.90;99.90;3.00;99526;;;;555234;255;24126;-78
2024/01/23 04:35:08;;;;;;;2.60;2.30;;;3.90;99.90;3.00;99525;;;;554770;255;24130;-79
2024/01/23 04:37:36;;;;;;;2.43;1.97;;;3.90;99.90;3.00;99524;;;;554658;255;24156;-79
2024/01/23 04:40:07;;;;;;;6.33;2.40;;;3.90;99.90;2.90;99528;;;;554814;255;24176;-78
2024/01/23 04:42:33;;;;;;;8.17;2.63;;;3.80;99.90;2.90;99530;;;;554961;255;24123;-80
2024/01/23 04:45:03;;;;;;;3.93;2.10;;;3.80;99.90;2.90;99540;;;;555679;255;24151;-79
2024/01/23 04:47:29;;;;;;;9.93;2.20;;;3.80;99.90;2.80;99552;;;;552346;255;24145;-79
2024/01/23 04:49:57;;;;;;;8.00;2.33;;;3.70;99.90;2.80;99545;;;;554835;255;24103;-79
2024/01/23 04:52:25;;;;;;;5.83;2.00;;;3.80;99.90;2.80;99549;;;;554517;255;24121;-78
2024/01/23 04:54:53;;;;;;;2.07;1.67;;;3.80;99.90;2.80;99547;;;;554418;255;24140;-79
2024/01/23 04:57:21;;;;;;;3.13;2.23;;;3.70;99.90;2.80;99557;;;;554888;255;24103;-79
2024/01/23 04:59:50;;;;;;;5.83;1.63;;;3.70;99.90;2.70;99561;;;;554884;255;24107;-79
2024/01/23 05:02:18;;;;;;;5.00;2.87;;;3.60;99.90;2.70;99555;;;;554782;255;24122;-79
2024/01/23 05:04:45;;;;;;;8.43;2.37;;;3.60;99.90;2.60;99549;;;;554528;255;24144;-79
2024/01/23 05:07:13;;;;;;;6.23;2.27;;;3.60;99.90;2.60;99568;;;;554488;255;24136;-79
2024/01/23 05:09:42;;;;;;;6.07;2.30;;;3.50;99.90;2.50;99573;;;;554494;255;24101;-79
2024/01/23 05:12:10;;;;;;;6.73;1.83;;;3.50;99.90;2.50;99560;;;;554304;255;24171;-79
2024/01/23 05:14:38;;;;;;;2.83;1.60;;;3.40;99.90;2.40;99552;;;;556684;255;24135;-78
2024/01/23 05:17:06;;;;;;;4.70;1.77;;;3.40;99.90;2.40;99569;;;;554476;255;24122;-79
2024/01/23 05:19:34;;;;;;;5.03;1.50;;;3.40;99.90;2.40;99571;;;;552583;255;24103;-78
2024/01/23 05:22:01;;;;;;;8.23;2.20;;;3.30;99.90;2.30;99574;;;;554805;253;24117;-78
2024/01/23 05:24:30;;;;;;;12.83;2.47;;;3.30;99.90;2.30;99573;;;;555607;254;24127;-79
2024/01/23 05:26:58;;;;;;;4.20;3.03;;;3.20;99.90;2.40;99578;;;;555485;254;24162;-79
2024/01/23 05:29:26;;;;;;;3.67;2.40;;;3.30;99.90;2.40;99597;;;;555146;254;24134;-79
2024/01/23 05:31:54;;;;;;;7.87;2.70;;;3.40;99.90;2.50;99595;;;;555246;254;24120;-79
2024/01/23 05:34:22;;;;;;;2.87;1.83;;;3.40;99.90;2.50;99591;;;;554914;254;24118;-78
2024/01/23 05:36:50;;;;;;;7.40;2.20;;;3.50;99.90;2.60;99573;;;;554901;254;24212;-78
2024/01/23 05:39:18;;;;;;;12.20;2.37;;;3.50;99.90;2.60;99584;;;;555008;254;24149;-79
2024/01/23 05:41:45;;;;;;;6.03;2.93;;;3.50;99.90;2.60;99587;;;;555595;255;24141;-78
2024/01/23 05:44:13;;;;;;;10.37;2.43;;;3.50;99.90;2.60;99581;;;;554730;255;24130;-79
2024/01/23 05:46:41;;;;;;;6.83;2.27;;;3.60;99.90;2.70;99579;;;;554755;255;24160;-78
2024/01/23 05:49:09;;;;;;;7.77;2.90;;;3.60;99.90;2.70;99583;;;;555125;255;24123;-78
2024/01/23 05:51:37;;;;;;;6.73;2.60;;;3.60;99.90;2.70;99592;;;;554773;255;24154;-78
2024/01/23 05:54:05;;;;;;;8.10;3.83;;;3.60;99.90;2.70;99587;;;;554611;255;24120;-78
2024/01/23 05:56:33;;;;;;;5.50;2.70;;;3.60;99.90;2.60;99596;;;;554781;255;24139;-80
2024/01/23 05:59:02;;;;;;;6.83;2.73;;;3.60;99.90;2.60;99590;;;;554950;255;24128;-79
2024/01/23 06:01:29;;;;;;;11.70;3.30;;;3.50;99.90;2.60;99592;;;;555220;255;24143;-78
2024/01/23 06:03:57;;;;;;;7.30;2.07;;;3.60;99.90;2.70;99590;;;;555494;255;24185;-78
2024/01/23 06:06:25;;;;;;;2.67;2.23;;;3.60;99.90;2.70;99597;;;;555327;255;24114;-78
2024/01/23 06:08:53;;;;;;;7.10;2.67;;;3.60;99.90;2.70;99587;;;;555732;255;24118;-78
2024/01/23 06:11:22;;;;;;;4.80;2.73;;;3.70;99.90;2.80;99609;;;;553421;255;24102;-77
2024/01/23 06:13:50;;;;;;;7.83;2.97;;;3.70;99.90;2.80;99601;;;;564513;255;24133;-77
2024/01/23 06:16:18;;;;;;;7.60;2.87;;;3.70;99.90;2.80;99609;;;;555187;255;24162;-78
2024/01/23 06:18:45;;;;;;;7.50;2.53;;;3.70;99.90;2.80;99617;;;;552925;255;24135;-80
2024/01/23 06:21:14;;;;;;;9.00;2.87;;;3.70;99.90;2.80;99620;;;;552469;255;24125;-78
2024/01/23 06:23:42;;;;;;;5.70;2.30;;;3.70;99.90;2.70;99616;;;;554507;255;24132;-78
2024/01/23 06:26:11;;;;;;;2.53;2.17;;;3.60;99.90;2.70;99621;;;;554476;255;24208;-79
2024/01/23 06:28:39;;;;;;;4.63;2.63;;;3.60;99.90;2.70;99625;;;;554491;255;24132;-78
2024/01/23 06:31:06;;;;;;;12.57;3.27;;;3.60;99.90;2.60;99641;;;;554619;255;24168;-80
2024/01/23 06:33:34;;;;;;;9.40;3.53;;;3.60;99.90;2.60;99646;;;;554796;253;24135;-78
2024/01/23 06:36:02;;;;;;;9.30;2.20;;;3.50;99.90;2.70;99649;;;;555661;254;24240;-79
2024/01/23 06:38:30;;;;;;;2.73;2.60;;;3.60;99.90;2.80;99642;;;;555467;254;24122;-78
2024/01/23 06:40:58;;;;;;;5.63;2.60;;;3.70;99.90;2.80;99634;;;;555126;254;24166;-79
2024/01/23 06:43:29;;;;;;;3.67;3.17;;;3.70;99.90;2.80;99635;;;;555052;254;24129;-79
2024/01/23 06:45:57;;;;;;;5.20;2.13;;;3.70;99.90;2.70;99640;;;;563396;254;24118;-77
2024/01/23 06:48:23;;;;;;;6.17;2.13;;;3.70;99.90;2.70;99630;;;;552575;254;25179;-78
2024/01/23 06:50:53;;;;;;;10.90;2.87;;;3.60;99.90;2.60;99638;;;;554998;254;24109;-77
2024/01/23 06:53:19;;;;;;;3.50;2.20;;;3.50;99.90;2.60;99648;;;;554550;255;24177;-77
2024/01/23 06:55:47;;;;;;;5.80;2.37;;;3.50;99.90;2.70;99643;;;;554815;255;24131;-79
2024/01/23 06:58:19;;;;;;;2.57;2.13;;;3.60;99.90;2.70;99640;;;;555202;254;24117;-79
2024/01/23 07:00:43;;;;;;;3.13;2.13;;;3.60;99.90;2.70;99635;;;;555640;255;24175;-78
2024/01/23 07:03:11;;;;;;;4.67;2.97;;;3.60;99.90;2.70;99633;;;;555009;255;24114;-78
2024/01/23 07:05:40;;;;;;;5.00;2.70;;;3.60;99.90;2.70;99636;;;;555094;255;24163;-77
2024/01/23 07:08:07;;;;;;;6.57;3.63;;;3.60;99.90;2.70;99638;;;;555092;255;24125;-77
2024/01/23 07:10:36;;;;;;;5.37;2.90;;;3.60;99.90;2.70;99645;;;;554911;255;24154;-78
2024/01/23 07:13:03;;;;;;;9.20;2.20;;;3.60;99.90;2.70;99651;;;;554728;255;24133;-79
2024/01/23 07:15:33;;;;;;;13.87;3.63;;;3.60;99.90;2.70;99649;;;;554421;255;24178;-79
2024/01/23 07:17:59;;;;;;;6.83;2.87;;;3.60;99.90;2.80;99663;;;;555005;255;24214;-78
2024/01/23 07:20:27;;;;;;;11.60;2.13;;;3.70;99.90;3.00;99678;;;;554527;255;24116;-78
2024/01/23 07:22:55;;;;;;;11.73;2.57;;;3.80;99.90;3.20;99677;;;;554786;255;24133;-78
2024/01/23 07:25:26;;;;;;;12.10;3.07;;;4.00;99.90;3.20;99673;;;;554581;255;24118;-78
2024/01/23 07:27:51;;;;;;;8.93;2.30;;;4.10;99.90;3.30;99659;;;;554819;255;24138;-78
2024/01/23 07:30:19;;;;;;;6.00;2.47;;;4.20;99.90;3.30;99670;;;;554605;255;24158;-78
2024/01/23 07:32:46;;;;;;;7.87;2.30;;;4.20;99.90;3.30;99681;;;;554313;255;24125;-78
2024/01/23 07:35:14;;;;;;;7.63;2.47;;;4.20;99.90;3.30;99672;;;;552146;255;24187;-79
2024/01/23 07:37:42;;;;;;;2.97;2.00;;;4.20;99.90;3.40;99669;;;;563189;255;24118;-79
2024/01/23 07:40:11;;;;;;;5.87;2.10;;;4.30;99.90;3.40;99677;;;;554376;255;24191;-78
2024/01/23 07:42:39;;;;;;;1.17;1.10;;;4.30;99.90;3.40;99689;;;;552313;255;25168;-78
2024/01/23 07:45:07;;;;;;;3.40;2.97;;;4.30;99.90;3.50;99688;;;;554628;252;24198;-78
2024/01/23 07:47:35;;;;;;;6.33;2.67;;;4.40;99.90;3.50;99703;;;;556184;254;24129;-78
2024/01/23 07:50:07;;;;;;;4.93;2.07;;;4.40;99.90;3.60;99700;;;;555333;254;24127;-80
2024/01/23 07:52:31;;;;;;;12.37;2.50;;;4.50;99.90;3.60;99686;;;;555317;254;24144;-77
2024/01/23 07:54:59;;;;;;;5.67;2.90;;;4.50;99.90;3.60;99688;;;;555136;254;24154;-77
2024/01/23 07:57:27;;;;;;;15.50;2.50;;;4.50;99.90;3.70;99692;;;;552641;254;24170;-77
2024/01/23 07:59:56;;;;;;;3.87;3.30;;;4.60;99.90;3.80;99689;;;;555092;254;24150;-77
2024/01/23 08:02:25;;;;;;;9.57;2.10;;;4.60;99.90;3.80;99699;;;;555677;254;24115;-77
2024/01/23 08:04:52;;;;;;;9.47;2.10;;;4.70;99.90;3.90;99705;;;;555021;255;24135;-79
2024/01/23 08:07:19;;;;;;;8.97;2.37;;;4.80;99.90;4.00;99682;;;;554963;255;24135;-78
2024/01/23 08:09:47;;;;;;;5.97;2.53;;;4.90;99.90;4.00;99692;;;;555107;255;24099;-77
2024/01/23 08:12:16;;;;;;;3.13;1.80;;;4.90;99.90;4.10;99711;;;;555084;255;24138;-78
2024/01/23 08:14:44;;;;;;;7.67;2.80;;;4.90;99.90;4.10;99705;;;;555014;255;26386;-78
2024/01/23 08:17:13;;;;;;;6.10;2.03;;;4.90;99.90;4.10;99711;;;;563600;255;24106;-79
2024/01/23 08:19:40;;;;;;;1.33;1.03;;;4.90;99.90;4.00;99719;;;;554660;255;24121;-77
2024/01/23 08:22:08;;;;;;;6.80;2.57;;;4.90;99.90;4.00;99714;;;;554558;255;24113;-77
2024/01/23 08:24:36;;;;;;;5.73;1.80;;;4.90;99.90;4.00;99717;;;;554550;255;24127;-79
2024/01/23 08:27:04;;;;;;;5.13;1.97;;;4.90;99.90;3.90;99725;;;;552186;255;24147;-77
2024/01/23 08:29:33;;;;;;;10.50;1.50;;;4.80;99.90;3.90;99710;;;;552600;255;24145;-78
2024/01/23 08:32:01;;;;;;;7.60;2.67;;;4.80;99.90;3.90;99717;;;;554406;255;24131;-77
2024/01/23 08:34:29;;;;;;;5.03;2.40;;;4.80;99.90;3.90;99704;;;;565223;249;24121;-77
2024/01/23 08:36:56;;;;;;;4.30;1.30;;;4.80;99.90;3.90;99725;;;;566830;253;24140;-78
2024/01/23 08:39:24;;;;;;;5.57;2.33;;;4.80;99.90;4.00;99726;;;;560406;252;24118;-78
2024/01/23 08:41:53;;;;;;;7.03;2.07;;;4.90;99.90;4.00;99728;;;;576043;249;24097;-79
2024/01/23 08:44:25;;;;;;;11.10;2.20;;;4.90;99.90;4.10;99719;;;;553271;255;24131;-78
2024/01/23 08:46:49;;;;;;;3.27;0.97;;;4.90;99.90;4.10;99726;;;;552314;255;24119;-77
2024/01/23 08:49:17;;;;;;;5.33;1.80;;;4.90;99.90;4.10;99730;;;;576435;249;24132;-78
2024/01/23 08:51:46;;;;;;;5.17;2.80;;;5.00;99.90;4.20;99724;;;;551936;255;24109;-77
2024/01/23 08:54:18;;;;;;;6.57;2.50;;;5.00;99.90;4.30;99727;;;;563801;249;24214;-79
2024/01/23 08:56:41;;;;;;;7.03;2.13;;;5.10;99.90;4.30;99733;;;;565405;247;24136;-76
2024/01/23 08:59:12;;;;;;;4.63;3.10;;;5.10;99.90;4.40;99719;;;;566723;249;24091;-77
2024/01/23 09:01:36;;;;;;;6.87;1.80;;;5.30;99.90;4.50;99730;;;;566301;249;24105;-77
2024/01/23 09:04:04;;;;;;;5.23;2.23;;;5.40;99.90;4.70;99728;;;;564872;249;24099;-79
2024/01/23 09:06:36;;;;;;;7.83;2.27;;;5.50;99.90;4.80;99730;;;;564648;249;24084;-78
2024/01/23 09:09:01;;;;;;;5.43;1.80;;;5.80;99.90;5.00;99720;;;;566308;249;24138;-75
2024/01/23 09:11:29;;;;;;;8.83;2.53;;;5.80;99.90;5.10;99737;;;;564643;249;24114;-78
2024/01/23 09:13:57;;;;;;;9.90;2.80;;;6.00;99.90;5.10;99727;;;;566178;249;24092;-78
2024/01/23 09:16:25;;;;;;;9.47;3.33;;;6.00;99.90;5.10;99728;;;;565906;249;24087;-77
2024/01/23 09:18:57;;;;;;;9.40;3.13;;;6.00;99.90;5.10;99747;;;;563957;249;24104;-79
2024/01/23 09:21:24;;;;;;;8.17;1.77;;;6.00;99.90;5.10;99738;;;;565060;249;24128;-76
2024/01/23 09:23:49;;;;;;;8.57;1.73;;;6.00;99.90;5.10;99732;;;;565490;249;24115;-77
2024/01/23 09:26:17;;;;;;;11.57;2.70;;;6.00;99.90;5.10;99729;;;;563834;249;24157;-76
2024/01/23 09:28:45;;;;;;;4.60;1.43;;;6.00;99.90;5.10;99719;;;;564170;249;24106;-78
2024/01/23 09:31:16;;;;;;;3.73;1.83;;;5.90;99.90;5.00;99735;;;;564139;249;24155;-76
2024/01/23 09:33:41;;;;;;;7.17;2.40;;;5.90;99.90;5.00;99729;;;;563142;249;24170;-78
2024/01/23 09:36:10;;;;;;;6.07;2.33;;;5.80;99.90;5.00;99719;;;;565169;249;24100;-78
2024/01/23 09:38:41;;;;;;;3.57;1.90;;;5.80;99.90;4.90;99720;;;;565052;249;24089;-78
2024/01/23 09:41:07;;;;;;;4.30;2.07;;;5.80;99.90;5.00;99724;;;;565156;249;24163;-77
2024/01/23 09:43:35;;;;;;;4.97;2.27;;;5.80;99.90;5.00;99738;;;;575345;249;24120;-77
2024/01/23 09:46:06;;;;;;;7.30;2.60;;;5.90;99.90;5.20;99739;;;;566897;249;24098;-78
2024/01/23 09:48:36;;;;;;;4.97;2.70;;;6.00;99.90;5.40;99733;;;;563530;249;24158;-79
2024/01/23 09:51:04;;;;;;;5.30;1.90;;;6.20;99.90;5.50;99737;;;;563650;249;24106;-77
2024/01/23 09:53:35;;;;;;;4.67;2.17;;;6.30;99.90;5.70;99730;;;;566746;249;24104;-76
2024/01/23 09:56:00;;;;;;;7.70;2.43;;;6.50;99.90;5.80;99741;;;;563168;249;24087;-77
2024/01/23 09:58:28;;;;;;;9.53;2.57;;;6.60;99.90;5.80;99744;;;;565172;249;24088;-79
2024/01/23 10:00:58;;;;;;;10.33;2.47;;;6.70;99.90;5.90;99741;;;;565082;249;24113;-78
2024/01/23 10:03:24;;;;;;;5.03;2.00;;;6.70;99.90;6.00;99733;;;;563838;249;25141;-78
2024/01/23 10:05:52;;;;;;;3.37;1.83;;;6.80;99.90;6.00;99736;;;;565467;249;24120;-77
2024/01/23 10:08:22;;;;;;;4.50;1.97;;;6.90;99.90;6.00;99720;;;;565725;247;24070;-81
2024/01/23 10:10:48;;;;;;;7.03;2.27;;;6.70;99.90;5.80;99747;;;;565149;249;24086;-77
2024/01/23 10:13:16;;;;;;;13.27;2.60;;;6.70;99.90;5.70;99746;;;;567041;249;24100;-78
2024/01/23 10:15:44;;;;;;;4.97;1.87;;;6.60;99.90;5.70;99749;;;;565983;249;24122;-79
2024/01/23 10:18:12;;;;;;;8.57;2.33;;;6.50;99.90;5.60;99749;;;;567064;249;24156;-77
2024/01/23 10:20:40;;;;;;;9.47;2.47;;;6.40;99.90;5.50;99748;;;;564223;249;24151;-78
2024/01/23 10:23:08;;;;;;;6.30;2.30;;;6.40;99.90;5.50;99741;;;;565638;249;24146;-78
2024/01/23 10:25:36;;;;;;;5.37;2.13;;;6.40;99.90;5.50;99750;;;;564022;249;24087;-77
2024/01/23 10:28:04;;;;;;;5.10;2.20;;;6.40;99.90;5.50;99758;;;;566564;249;24139;-77
2024/01/23 10:30:32;;;;;;;5.03;2.27;;;6.30;99.90;5.50;99748;;;;563394;249;24139;-79
2024/01/23 10:33:03;;;;;;;4.87;1.83;;;6.30;99.90;5.50;99735;;;;564162;249;24092;-77
2024/01/23 10:35:29;;;;;;;6.27;2.33;;;6.40;99.90;5.60;99741;;;;564240;249;24089;-79
2024/01/23 10:37:57;;;;;;;2.37;2.13;;;6.40;99.90;5.70;99747;;;;567299;249;24099;-80
2024/01/23 10:40:25;;;;;;;6.20;1.77;;;6.50;99.90;5.70;99736;;;;564261;249;24093;-78
2024/01/23 10:42:56;;;;;;;6.70;2.07;;;6.50;99.90;5.60;99749;;;;564067;249;24116;-79
2024/01/23 10:45:21;;;;;;;4.00;1.67;;;6.50;99.90;5.60;99748;;;;563872;249;24088;-78
2024/01/23 10:47:51;;;;;;;8.57;2.60;;;6.50;99.90;5.60;99726;;;;563795;249;24150;-77
2024/01/23 10:50:17;;;;;;;11.00;2.10;;;6.40;99.90;5.60;99741;;;;563595;249;24106;-77
2024/01/23 10:52:45;;;;;;;4.23;1.70;;;6.40;99.90;5.50;99727;;;;563378;249;24206;-78
2024/01/23 10:55:13;;;;;;;1.67;1.33;;;6.40;99.90;5.40;99727;;;;565967;249;24145;-78
2024/01/23 10:57:41;;;;;;;6.97;2.10;;;6.30;99.90;5.30;99732;;;;566605;249;24131;-77
2024/01/23 11:00:12;;;;;;;5.77;1.77;;;6.20;99.90;5.30;99743;;;;566042;249;24212;-79
2024/01/23 11:02:48;;;;;;;8.40;1.80;;;6.20;99.90;5.30;99737;;;;564646;249;24101;-77
2024/01/23 11:05:16;;;;;;;9.07;2.47;;;6.10;99.90;5.30;99751;;;;563759;249;24087;-78
2024/01/23 11:07:56;;;;;;;11.67;2.87;;;6.10;99.90;5.30;99741;;;;558889;249;35266;-78
2024/01/23 11:10:30;;;;;;;3.10;2.17;;;6.10;99.90;5.20;99751;;;;565109;249;24092;-77
2024/01/23 11:13:31;;;;;;;6.00;2.40;;;6.10;99.90;5.20;99732;;;;566773;249;24191;-79
2024/01/23 11:15:59;;;;;;;3.17;1.33;;;6.00;99.90;5.20;99716;;;;564794;249;24141;-77
2024/01/23 11:18:32;;;;;;;4.10;2.03;;;6.10;99.90;5.20;99724;;;;566291;249;24111;-79
2024/01/23 11:21:08;;;;;;;3.03;1.20;;;6.10;99.90;5.20;99721;;;;568168;249;24093;-77
2024/01/23 11:23:43;;;;;;;5.47;1.77;;;6.00;99.90;5.30;99746;;;;568713;249;24111;-76
2024/01/23 11:26:18;;;;;;;4.43;1.60;;;6.10;99.90;5.30;99747;;;;566949;247;24095;-78
2024/01/23 11:28:44;;;;;;;5.67;1.97;;;6.10;99.90;5.40;99771;;;;566152;249;24173;-79
2024/01/23 11:31:22;;;;;;;5.37;1.87;;;6.20;99.90;5.50;99770;;;;567118;249;24129;-78
2024/01/23 11:33:52;;;;;;;5.87;1.90;;;6.40;99.90;5.60;99772;;;;567020;249;24104;-76
2024/01/23 11:36:23;;;;;;;11.37;2.70;;;6.50;99.90;5.70;99759;;;;564341;249;24176;-77